Time;durP1;ratioP1;P1;durP2;ratioP2;P2;SDS_P1;SDS_P2;PMS_P1;PMS_P2;Temp;Humidity;BMP_temperature;BMP_pressure;BME280_temperature;BME280_humidity;BME280_pressure;Samples;Min_cycle;Max_cycle;Signal;HPM_P1;HPM_P2
2023/01/05 00:04:57;;;;;;;8.93;2.22;;;;;;;19.44;42.88;101710.06;16122214;19;130364;-49
2023/01/05 00:27:19;;;;;;;8.32;2.22;;;;;;;19.35;42.97;101721.47;16119487;19;129400;-52
2023/01/05 00:32:42;;;;;;;5.28;1.60;;;;;;;19.33;42.99;101720.84;16134761;19;129425;-50
2023/01/05 00:38:04;;;;;;;5.22;1.95;;;;;;;19.30;42.92;101715.78;16135803;19;129566;-47
2023/01/05 00:43:26;;;;;;;6.85;2.05;;;;;;;19.29;42.61;101711.31;16136347;19;130191;-49
2023/01/05 00:48:48;;;;;;;8.60;1.90;;;;;;;19.28;42.94;101703.19;16135534;19;130682;-49
2023/01/05 00:54:10;;;;;;;6.93;1.70;;;;;;;19.26;42.85;101717.31;16136058;19;129661;-47
2023/01/05 00:59:32;;;;;;;9.45;2.30;;;;;;;19.24;42.98;101713.09;16133638;19;129174;-47
2023/01/05 01:04:54;;;;;;;5.78;1.65;;;;;;;19.21;42.77;101701.38;16135414;19;129291;-45
2023/01/05 01:10:16;;;;;;;5.05;1.50;;;;;;;19.21;43.05;101717.16;16134893;19;130304;-46
2023/01/05 01:15:37;;;;;;;6.07;1.70;;;;;;;19.19;42.77;101705.44;16134903;19;130799;-48
2023/01/05 01:20:59;;;;;;;7.07;1.10;;;;;;;19.16;42.86;101720.59;16133113;19;129744;-49
2023/01/05 01:26:21;;;;;;;6.25;1.60;;;;;;;19.15;42.91;101715.28;16132901;19;129022;-49
2023/01/05 01:31:45;;;;;;;6.75;1.40;;;;;;;19.15;42.99;101726.38;16133391;19;131677;-47
2023/01/05 01:37:07;;;;;;;4.10;1.37;;;;;;;19.12;42.93;101732.38;16133009;19;135145;-49
2023/01/05 01:42:29;;;;;;;7.78;1.73;;;;;;;19.11;43.03;101744.53;16129647;19;130059;-45
2023/01/05 01:47:57;;;;;;;6.50;1.42;;;;;;;19.11;42.84;101747.31;16131524;19;130092;-46
2023/01/05 01:53:30;;;;;;;6.65;1.52;;;;;;;19.07;42.75;101747.81;16132272;19;129389;-46
2023/01/05 01:58:53;;;;;;;5.40;1.52;;;;;;;19.06;43.13;101751.66;16133429;19;130350;-48
2023/01/05 02:04:14;;;;;;;4.90;1.58;;;;;;;19.06;42.89;101759.09;16132517;19;130827;-47
2023/01/05 02:09:37;;;;;;;6.05;1.58;;;;;;;19.04;42.70;101773.22;16132098;19;130178;-50
2023/01/05 02:15:34;;;;;;;4.25;1.42;;;;;;;19.03;43.09;101777.06;16131636;19;129402;-47
2023/01/05 02:21:08;;;;;;;5.82;1.60;;;;;;;19.04;43.10;101783.44;16127599;19;130847;-48
2023/01/05 02:27:15;;;;;;;5.20;1.63;;;;;;;19.04;43.08;101777.88;16129890;19;130484;-46
2023/01/05 02:32:59;;;;;;;5.93;1.67;;;;;;;19.01;42.83;101773.66;16128075;19;129120;-47
2023/01/05 02:38:39;;;;;;;6.75;2.00;;;;;;;18.99;43.11;101778.56;16128871;19;128846;-46
2023/01/05 02:44:01;;;;;;;5.25;1.50;;;;;;;18.95;42.76;101771.81;16127982;19;130631;-49
2023/01/05 02:49:23;;;;;;;7.15;1.80;;;;;;;18.94;42.77;101781.22;16127071;19;129609;-46
2023/01/05 02:54:59;;;;;;;6.40;1.60;;;;;;;18.96;43.07;101772.66;16128229;19;129748;-47
2023/01/05 03:00:32;;;;;;;7.50;1.50;;;;;;;18.94;42.69;101760.94;16127090;19;129696;-48
2023/01/05 03:06:00;;;;;;;6.15;1.58;;;;;;;18.92;42.92;101769.50;16127529;19;129010;-49
2023/01/05 03:17:09;;;;;;;4.60;1.40;;;;;;;18.89;43.09;101779.09;16128306;19;129541;-47
2023/01/05 03:39:52;;;;;;;4.53;1.10;;;;;;;18.85;42.81;101788.97;16124128;19;129478;-50
2023/01/05 03:45:16;;;;;;;3.55;1.30;;;;;;;18.85;42.74;101796.41;16123048;19;129673;-47
2023/01/05 03:50:37;;;;;;;5.18;1.33;;;;;;;18.83;42.72;101790.25;16122431;19;129935;-49
2023/01/05 03:55:59;;;;;;;7.00;1.40;;;;;;;18.82;43.20;101783.84;16123340;19;129552;-46
2023/01/05 04:01:21;;;;;;;3.38;1.10;;;;;;;18.82;43.01;101800.50;16120675;19;129394;-48
2023/01/05 04:06:43;;;;;;;4.47;1.40;;;;;;;18.82;43.01;101799.66;16123309;19;129540;-48
2023/01/05 04:12:05;;;;;;;4.47;1.27;;;;;;;18.81;42.76;101803.50;16122418;19;130062;-47
2023/01/05 04:17:26;;;;;;;4.25;1.13;;;;;;;18.81;43.20;101809.03;16122443;19;129636;-46
2023/01/05 04:22:48;;;;;;;4.43;1.27;;;;;;;18.79;42.99;101816.72;16122732;19;129454;-48
2023/01/05 04:28:10;;;;;;;4.72;1.15;;;;;;;18.77;42.86;101808.63;16121488;19;130074;-51
2023/01/05 04:33:32;;;;;;;6.10;1.50;;;;;;;18.76;43.11;101813.34;16117576;19;129153;-49
2023/01/05 04:38:53;;;;;;;4.18;1.17;;;;;;;18.75;42.71;101828.25;16120230;19;130654;-47
2023/01/05 04:44:15;;;;;;;8.18;1.60;;;;;;;18.74;43.08;101826.56;16118410;19;131663;-48
2023/01/05 04:49:37;;;;;;;7.15;1.77;;;;;;;18.72;42.88;101811.25;16118695;19;130111;-49
2023/01/05 04:54:59;;;;;;;5.60;1.30;;;;;;;18.72;42.74;101816.78;16119486;19;128951;-47
2023/01/05 05:00:20;;;;;;;5.50;1.42;;;;;;;18.72;42.91;101816.78;16118875;19;131494;-46
2023/01/05 05:05:42;;;;;;;4.30;1.48;;;;;;;18.70;42.69;101825.34;16119733;19;134050;-50
2023/01/05 05:11:05;;;;;;;4.82;1.10;;;;;;;18.71;42.89;101824.22;16117393;19;129299;-46
2023/01/05 05:16:27;;;;;;;2.75;0.90;;;;;;;18.70;42.75;101821.69;16127804;19;130183;-47
2023/01/05 05:21:49;;;;;;;3.83;1.10;;;;;;;18.69;42.78;101823.63;16133307;19;129389;-47
2023/01/05 05:27:11;;;;;;;4.70;1.20;;;;;;;18.67;42.78;101825.78;16132123;19;129531;-47
2023/01/05 05:32:33;;;;;;;6.90;1.67;;;;;;;18.67;43.06;101838.78;16131860;19;130222;-48
2023/01/05 05:38:01;;;;;;;4.72;1.10;;;;;;;18.66;43.18;101853.69;16132655;19;129460;-49
2023/01/05 05:43:23;;;;;;;4.70;1.25;;;;;;;18.65;43.01;101861.19;16132815;19;130154;-48
2023/01/05 05:48:44;;;;;;;4.47;1.30;;;;;;;18.65;43.23;101872.25;16132155;19;130018;-48
2023/01/05 05:54:06;;;;;;;5.95;1.30;;;;;;;18.65;42.77;101880.59;16132594;19;129397;-46
2023/01/05 05:59:28;;;;;;;4.60;1.10;;;;;;;18.63;43.20;101876.34;16129712;19;129763;-51
2023/01/05 06:04:49;;;;;;;4.68;1.33;;;;;;;18.63;42.84;101879.13;16130655;19;129423;-50
2023/01/05 06:10:11;;;;;;;4.30;1.40;;;;;;;18.63;42.96;101884.66;16131830;19;129784;-45
2023/01/05 06:15:33;;;;;;;5.05;1.52;;;;;;;18.63;43.13;101888.25;16128186;19;129433;-50
2023/01/05 06:20:55;;;;;;;5.15;1.15;;;;;;;18.63;42.88;101899.34;16129832;19;129504;-47
2023/01/05 06:26:22;;;;;;;6.30;1.45;;;;;;;18.60;42.92;101908.09;16123137;19;130334;-48
2023/01/05 06:31:43;;;;;;;6.65;1.80;;;;;;;18.63;43.27;101913.22;16128169;19;129422;-48
2023/01/05 06:37:05;;;;;;;16.27;2.05;;;;;;;18.66;43.09;101920.22;16129674;19;130029;-48
2023/01/05 06:42:27;;;;;;;5.88;1.45;;;;;;;18.71;43.68;101915.72;16127237;19;129566;-51
2023/01/05 06:47:49;;;;;;;6.68;1.58;;;;;;;18.76;43.37;101921.44;16127522;19;130190;-49
2023/01/05 06:53:11;;;;;;;7.25;1.73;;;;;;;18.77;43.10;101936.13;16127364;19;129968;-47
2023/01/05 06:58:32;;;;;;;6.85;1.77;;;;;;;18.75;43.33;101939.16;16127121;19;133334;-49
2023/01/05 07:03:54;;;;;;;8.15;2.42;;;;;;;18.74;43.08;101945.75;16128695;19;129104;-45
2023/01/05 07:09:16;;;;;;;6.47;1.85;;;;;;;18.73;43.28;101944.06;16125452;19;130473;-48
2023/01/05 07:14:38;;;;;;;6.72;1.75;;;;;;;18.72;43.40;101952.59;16126386;19;129564;-49
2023/01/05 07:20:00;;;;;;;7.25;1.70;;;;;;;18.69;43.36;101953.91;16124860;19;129611;-48
2023/01/05 07:25:21;;;;;;;9.30;1.70;;;;;;;18.68;43.36;101960.53;16124496;19;129936;-47
2023/01/05 07:30:50;;;;;;;10.10;1.75;;;;;;;18.67;43.32;101967.13;16127508;19;130183;-45
2023/01/05 07:36:12;;;;;;;7.75;1.88;;;;;;;18.64;43.03;101962.03;16123458;19;129974;-45
2023/01/05 07:41:34;;;;;;;5.70;1.75;;;;;;;18.63;43.20;101965.88;16123089;19;129261;-49
2023/01/05 07:46:55;;;;;;;8.50;1.70;;;;;;;18.62;42.97;101975.25;16124248;19;130868;-50
2023/01/05 07:52:17;;;;;;;6.40;1.42;;;;;;;18.63;43.00;101982.50;16120229;19;129846;-45
2023/01/05 07:57:39;;;;;;;7.07;1.83;;;;;;;18.62;43.11;101994.66;16122108;19;129543;-52
2023/01/05 08:03:01;;;;;;;4.63;1.55;;;;;;;18.61;43.27;101999.34;16121134;19;129977;-48
2023/01/05 08:08:23;;;;;;;7.65;1.63;;;;;;;18.59;42.89;102000.63;16120483;19;137316;-46
2023/01/05 08:14:01;;;;;;;6.40;1.67;;;;;;;18.59;43.20;102000.63;16122108;19;129421;-52
2023/01/05 08:19:23;;;;;;;6.85;1.52;;;;;;;18.58;42.78;102010.03;16120952;19;129692;-47
2023/01/05 08:24:45;;;;;;;4.90;1.42;;;;;;;18.58;42.76;102021.13;16120396;19;130542;-51
2023/01/05 08:30:07;;;;;;;9.23;1.90;;;;;;;18.57;42.92;102016.66;16120422;19;129584;-46
2023/01/05 08:35:29;;;;;;;4.50;1.40;;;;;;;18.57;43.01;102019.44;16120400;19;129539;-47
2023/01/05 08:40:51;;;;;;;5.03;1.35;;;;;;;18.56;43.00;102012.19;16120369;19;129867;-49
2023/01/05 08:46:13;;;;;;;6.30;1.73;;;;;;;18.55;43.16;102016.84;16120042;19;130293;-47
2023/01/05 08:51:35;;;;;;;5.40;1.52;;;;;;;18.55;42.62;102018.78;16130980;19;129613;-48
2023/01/05 08:56:57;;;;;;;5.00;1.50;;;;;;;18.54;42.99;102033.72;16134101;19;129566;-48
2023/01/05 09:02:18;;;;;;;5.97;1.58;;;;;;;18.54;42.79;102047.56;16133836;19;129674;-47
2023/01/05 09:07:46;;;;;;;6.03;1.42;;;;;;;18.53;43.15;102052.25;16134974;19;129609;-46
2023/01/05 09:13:09;;;;;;;6.90;1.65;;;;;;;18.53;43.15;102063.31;16133694;19;130328;-48
2023/01/05 09:18:31;;;;;;;6.47;1.92;;;;;;;18.53;42.71;102056.94;16133912;19;129807;-46
2023/01/05 09:23:53;;;;;;;6.18;1.45;;;;;;;18.53;42.93;102054.19;16133723;19;129351;-46
2023/01/05 09:29:15;;;;;;;5.95;1.30;;;;;;;18.53;42.83;102056.94;16133762;19;129642;-49
2023/01/05 09:34:36;;;;;;;5.00;1.45;;;;;;;18.52;42.97;102061.66;16129550;19;129187;-45
2023/01/05 09:39:58;;;;;;;5.78;1.73;;;;;;;18.53;42.88;102068.03;16133291;19;129526;-46
2023/01/05 09:45:25;;;;;;;5.55;1.20;;;;;;;18.52;43.08;102075.50;16130218;19;129591;-46
2023/01/05 09:50:49;;;;;;;5.30;1.35;;;;;;;18.51;43.15;102070.16;16132971;19;129253;-48
2023/01/05 09:56:36;;;;;;;5.25;1.35;;;;;;;18.53;42.74;102090.19;16132230;19;129502;-46
2023/01/05 10:02:35;;;;;;;6.78;1.67;;;;;;;18.52;42.76;102094.03;16130846;19;129759;-47
2023/01/05 10:08:15;;;;;;;5.88;1.35;;;;;;;18.51;42.98;102092.34;16127661;19;130651;-48
2023/01/05 10:13:41;;;;;;;7.32;1.40;;;;;;;18.49;42.82;102095.34;16133473;19;130936;-49
2023/01/05 10:19:03;;;;;;;5.05;1.63;;;;;;;18.49;42.88;102091.69;16130041;19;129960;-47
2023/01/05 10:24:52;;;;;;;4.63;1.35;;;;;;;18.49;43.11;102097.22;16127524;19;129621;-45
2023/01/05 10:30:41;;;;;;;7.85;1.80;;;;;;;18.48;42.71;102096.41;16129198;19;129837;-48
2023/01/05 10:36:18;;;;;;;5.95;1.50;;;;;;;18.46;42.93;102091.06;16130265;19;135240;-48
2023/01/05 10:42:10;;;;;;;7.88;1.92;;;;;;;18.46;43.00;102095.75;16126817;19;129570;-50
2023/01/05 10:47:36;;;;;;;5.97;1.52;;;;;;;18.46;42.96;102101.31;16128558;19;129321;-48
2023/01/05 10:53:00;;;;;;;13.18;1.83;;;;;;;18.46;43.06;102102.13;16126251;19;129483;-48
2023/01/05 10:58:23;;;;;;;5.65;1.60;;;;;;;18.45;43.11;102106.00;16122883;19;129806;-47
2023/01/05 11:03:47;;;;;;;6.18;1.73;;;;;;;18.45;42.92;102105.13;16123688;19;130654;-48
2023/01/05 11:09:29;;;;;;;5.65;1.60;;;;;;;18.43;43.16;102113.69;16124531;19;129686;-47
2023/01/05 11:14:55;;;;;;;9.00;2.10;;;;;;;18.41;42.71;102104.72;16125713;19;130039;-45
2023/01/05 11:20:19;;;;;;;10.93;2.00;;;;;;;18.40;43.03;102086.41;16120464;19;129718;-48
2023/01/05 11:25:41;;;;;;;6.85;1.67;;;;;;;18.41;43.02;102088.09;16126414;19;128961;-50
2023/01/05 11:31:05;;;;;;;7.75;1.70;;;;;;;18.41;43.01;102087.22;16125280;19;131245;-51
2023/01/05 11:36:27;;;;;;;8.98;2.35;;;;;;;18.41;42.72;102088.09;16123869;19;130955;-46
2023/01/05 11:41:49;;;;;;;3.80;1.55;;;;;;;18.40;42.86;102091.09;16125060;19;129885;-47
2023/01/05 11:47:20;;;;;;;4.70;1.40;;;;;;;18.41;42.78;102092.78;16123983;19;131774;-45
2023/01/05 11:52:45;;;;;;;4.93;1.42;;;;;;;18.39;42.91;102081.91;16124380;19;131095;-46
2023/01/05 11:58:12;;;;;;;5.93;1.77;;;;;;;18.38;43.04;102074.63;16122728;19;129302;-46
2023/01/05 12:04:00;;;;;;;5.43;1.42;;;;;;;18.38;42.87;102071.88;16119329;19;129478;-50
2023/01/05 12:09:29;;;;;;;5.38;1.70;;;;;;;18.36;43.04;102071.22;16122065;19;129590;-48
2023/01/05 12:15:32;;;;;;;6.93;1.80;;;;;;;18.38;43.20;102065.50;16123586;19;129419;-47
2023/01/05 12:21:03;;;;;;;4.88;1.48;;;;;;;18.37;43.10;102069.31;16122536;19;131583;-48
2023/01/05 12:26:54;;;;;;;5.40;1.27;;;;;;;18.37;43.05;102067.38;16135891;19;129604;-49
2023/01/05 12:32:44;;;;;;;5.85;1.63;;;;;;;18.37;42.77;102069.31;16137351;19;130140;-46
2023/01/05 12:39:23;;;;;;;8.30;1.90;;;;;;;18.35;42.75;102066.75;16135740;19;129484;-49
2023/01/05 12:45:18;;;;;;;7.38;1.75;;;;;;;18.36;43.04;102068.47;16126755;19;130328;-48
2023/01/05 12:51:20;;;;;;;3.80;1.40;;;;;;;18.36;42.96;102062.09;16127015;19;129812;-45
2023/01/05 12:57:07;;;;;;;4.93;1.40;;;;;;;18.35;42.85;102055.66;16127511;19;130627;-45
2023/01/05 13:02:43;;;;;;;4.70;1.40;;;;;;;18.35;43.14;102044.59;16124095;19;131682;-46
2023/01/05 13:08:28;;;;;;;6.05;1.73;;;;;;;18.36;42.82;102045.47;16128154;19;129748;-49
2023/01/05 13:13:58;;;;;;;6.38;1.65;;;;;;;18.33;43.21;102032.91;16125244;19;130035;-47
2023/01/05 13:19:33;;;;;;;6.47;1.40;;;;;;;18.34;43.01;102026.25;16128440;19;130278;-49
2023/01/05 13:25:17;;;;;;;4.40;1.13;;;;;;;18.33;43.23;102032.03;16134763;19;130251;-48
2023/01/05 13:30:52;;;;;;;4.70;1.45;;;;;;;18.33;43.12;102030.13;16134063;19;129384;-46
2023/01/05 13:36:22;;;;;;;4.60;1.65;;;;;;;18.32;43.13;102017.34;16120230;19;129306;-46
2023/01/05 13:42:00;;;;;;;3.60;1.20;;;;;;;18.30;43.20;102025.84;16127522;19;130231;-46
2023/01/05 13:47:39;;;;;;;5.30;1.42;;;;;;;18.30;42.80;102025.00;16128586;19;129506;-48
2023/01/05 13:53:23;;;;;;;6.03;1.52;;;;;;;18.30;42.81;102025.84;16132132;19;129634;-45
2023/01/05 13:59:07;;;;;;;5.47;1.90;;;;;;;18.28;43.06;102022.44;16133785;19;129581;-45
2023/01/05 14:04:45;;;;;;;4.00;1.05;;;;;;;18.28;42.94;102027.16;16133063;19;129497;-49
2023/01/05 14:10:22;;;;;;;3.83;1.45;;;;;;;18.30;42.75;102019.47;16133003;19;129300;-47
2023/01/05 14:15:43;;;;;;;3.25;1.27;;;;;;;18.28;42.78;102024.38;16132087;19;129901;-47
2023/01/05 14:21:09;;;;;;;6.30;1.38;;;;;;;18.29;42.99;102031.63;16131868;19;129415;-48
2023/01/05 14:26:59;;;;;;;5.18;1.50;;;;;;;18.29;42.85;102021.38;16130016;19;129673;-45
2023/01/05 14:32:43;;;;;;;4.82;1.50;;;;;;;18.29;43.14;102026.09;16130820;19;129401;-47
2023/01/05 14:38:22;;;;;;;4.13;0.95;;;;;;;18.29;42.67;102024.16;16131737;19;129361;-49
2023/01/05 14:43:53;;;;;;;5.20;1.10;;;;;;;18.27;42.81;102022.69;16133036;19;131867;-47
2023/01/05 14:49:38;;;;;;;4.45;1.20;;;;;;;18.29;43.11;102015.00;16126155;19;129517;-46
2023/01/05 14:54:59;;;;;;;2.65;1.35;;;;;;;18.27;43.09;102014.38;16129206;19;129353;-48
2023/01/05 15:00:55;;;;;;;3.50;0.90;;;;;;;18.28;42.79;102019.69;16127591;19;128928;-50
2023/01/05 15:06:22;;;;;;;5.30;1.10;;;;;;;18.27;42.99;102015.22;16127512;19;130169;-47
2023/01/05 15:12:07;;;;;;;2.58;0.93;;;;;;;18.28;42.68;102016.06;16130486;19;129504;-48
2023/01/05 15:17:54;;;;;;;6.35;1.40;;;;;;;18.27;42.95;102009.69;16125123;19;129814;-52
2023/01/05 15:23:46;;;;;;;5.05;1.23;;;;;;;18.27;42.92;101987.53;16124663;19;129828;-45
2023/01/05 15:29:36;;;;;;;2.58;0.90;;;;;;;18.26;43.03;101998.81;16124575;19;130437;-49
2023/01/05 15:35:04;;;;;;;4.53;0.93;;;;;;;18.27;42.96;102008.81;16123803;19;130625;-50
2023/01/05 15:40:31;;;;;;;3.97;1.00;;;;;;;18.26;42.83;101990.50;16123282;19;129064;-49
2023/01/05 15:45:53;;;;;;;4.10;1.23;;;;;;;18.24;43.12;101981.56;16126545;19;131146;-46
2023/01/05 15:51:23;;;;;;;3.90;1.15;;;;;;;18.23;43.04;101983.47;16123448;19;129081;-46
2023/01/05 15:56:45;;;;;;;3.08;0.93;;;;;;;18.22;42.91;101984.56;16123786;19;130892;-50
2023/01/05 16:02:36;;;;;;;1.90;0.80;;;;;;;18.22;43.22;101973.47;16124672;19;129470;-50
2023/01/05 16:08:07;;;;;;;2.08;0.80;;;;;;;18.21;42.82;101980.06;16122780;19;131222;-48
2023/01/05 16:13:39;;;;;;;5.65;1.25;;;;;;;18.21;43.17;101971.78;16121006;19;129640;-51
2023/01/05 16:19:23;;;;;;;3.85;0.73;;;;;;;18.21;42.73;101970.94;16122994;19;129600;-50
2023/01/05 16:24:48;;;;;;;3.72;0.70;;;;;;;18.20;42.78;101963.69;16121568;19;129727;-47
2023/01/05 16:30:30;;;;;;;3.10;1.00;;;;;;;18.20;42.92;101963.69;16120467;19;130084;-45
2023/01/05 16:36:06;;;;;;;2.30;0.98;;;;;;;18.19;43.04;101950.91;16123277;19;130294;-48
2023/01/05 16:41:28;;;;;;;3.22;1.08;;;;;;;18.17;42.83;101953.03;16123557;19;129708;-50
2023/01/05 16:47:07;;;;;;;4.03;1.02;;;;;;;18.19;43.24;101956.44;16125430;19;130073;-45
2023/01/05 16:52:28;;;;;;;5.60;1.08;;;;;;;18.18;42.89;101949.19;16125778;19;129369;-48
2023/01/05 16:58:28;;;;;;;7.60;1.17;;;;;;;18.20;42.72;101938.75;16125952;19;129968;-47
2023/01/05 17:03:50;;;;;;;4.40;0.88;;;;;;;18.18;43.07;101938.97;16126713;19;130901;-46
2023/01/05 17:09:33;;;;;;;3.88;1.33;;;;;;;18.20;43.17;101936.00;16126732;19;130187;-50
2023/01/05 17:14:59;;;;;;;7.20;1.40;;;;;;;18.19;43.07;101939.81;16140805;19;129540;-44
2023/01/05 17:20:28;;;;;;;6.15;1.45;;;;;;;18.15;43.18;101948.56;16139887;19;130865;-48
2023/01/05 17:25:51;;;;;;;3.72;1.13;;;;;;;18.14;42.94;101943.25;16141266;19;129502;-48
2023/01/05 17:31:34;;;;;;;3.90;1.23;;;;;;;18.14;43.00;101949.63;16168490;19;129643;-50
2023/01/05 17:36:59;;;;;;;2.97;1.17;;;;;;;18.15;42.97;101934.72;16214391;19;129648;-53
2023/01/05 17:48:01;;;;;;;6.88;1.50;;;;;;;18.17;43.07;101942.78;16216880;19;129238;-51
2023/01/05 17:53:23;;;;;;;5.00;1.13;;;;;;;18.18;42.83;101940.91;16212747;19;133370;-50
2023/01/05 17:58:45;;;;;;;3.63;1.10;;;;;;;18.18;42.87;101927.88;16208099;19;128682;-49
2023/01/05 18:04:07;;;;;;;3.83;1.08;;;;;;;18.19;43.28;101937.06;16206092;19;129932;-51
2023/01/05 18:09:28;;;;;;;3.17;1.20;;;;;;;18.19;43.29;101925.97;16204546;19;129548;-44
2023/01/05 18:14:50;;;;;;;5.18;1.25;;;;;;;18.20;43.10;101933.22;16205139;19;129511;-50
2023/01/05 18:20:14;;;;;;;6.97;1.40;;;;;;;18.21;43.37;101916.38;16211446;19;128570;-47
2023/01/05 18:25:39;;;;;;;3.72;1.20;;;;;;;18.49;43.23;101922.66;16213530;19;128913;-48
2023/01/05 18:31:08;;;;;;;7.00;1.15;;;;;;;18.89;43.07;101916.88;16209976;19;129170;-47
2023/01/05 18:36:30;;;;;;;5.90;1.52;;;;;;;19.32;42.47;101910.59;16205670;19;128834;-53
2023/01/05 18:41:51;;;;;;;5.78;1.40;;;;;;;19.76;42.22;101906.97;16207148;19;130189;-46
2023/01/05 18:47:13;;;;;;;5.00;1.40;;;;;;;20.11;41.40;101906.38;16125113;19;131764;-46
2023/01/05 18:52:35;;;;;;;4.47;1.20;;;;;;;20.38;41.28;101914.38;16202799;19;128639;-47
2023/01/05 18:57:56;;;;;;;2.83;1.00;;;;;;;20.51;41.17;101911.44;16191721;19;129732;-44
2023/01/05 19:03:18;;;;;;;16.13;2.33;;;;;;;20.49;40.87;101896.91;16150602;19;129435;-53
2023/01/05 19:08:41;;;;;;;15.75;2.10;;;;;;;20.43;41.13;101903.44;16137396;19;129761;-48
2023/01/05 19:14:04;;;;;;;14.52;2.10;;;;;;;20.32;41.13;101918.09;16133855;19;129857;-45
2023/01/05 19:19:26;;;;;;;5.00;1.35;;;;;;;20.19;41.50;101922.72;16133041;19;129742;-47
2023/01/05 19:24:48;;;;;;;8.55;1.63;;;;;;;20.07;41.32;101911.56;16135661;19;129541;-52
2023/01/05 19:30:10;;;;;;;8.25;2.03;;;;;;;20.03;42.09;101906.72;16131592;19;130039;-46
2023/01/05 19:35:32;;;;;;;15.55;2.05;;;;;;;20.17;42.30;101904.59;16127730;19;129714;-49
2023/01/05 19:40:53;;;;;;;17.83;2.47;;;;;;;20.43;41.69;101897.88;16136035;19;130171;-47
2023/01/05 19:46:17;;;;;;;10.70;1.75;;;;;;;20.77;41.78;101898.25;16144146;19;130087;-46
2023/01/05 19:51:39;;;;;;;11.52;2.03;;;;;;;20.99;41.06;101894.91;16126713;19;129732;-48
2023/01/05 19:57:01;;;;;;;16.52;2.08;;;;;;;21.09;41.03;101888.78;16123759;19;129307;-48
2023/01/05 20:02:24;;;;;;;8.57;1.52;;;;;;;21.11;41.27;101898.56;16122982;19;129416;-46
2023/01/05 20:07:46;;;;;;;8.13;1.40;;;;;;;21.08;41.39;101892.63;16121510;19;130152;-50
2023/01/05 20:13:09;;;;;;;11.63;1.40;;;;;;;21.00;41.42;101891.88;16118822;19;129696;-44
2023/01/05 20:18:32;;;;;;;9.32;1.45;;;;;;;20.90;41.58;101883.28;16120950;19;129737;-46
2023/01/05 20:23:54;;;;;;;7.85;1.15;;;;;;;20.79;41.86;101884.97;16121363;19;130104;-49
2023/01/05 20:29:18;;;;;;;3.63;1.05;;;;;;;20.68;42.21;101882.94;16119927;19;129475;-47
2023/01/05 20:34:41;;;;;;;7.97;1.35;;;;;;;20.59;41.88;101883.28;16117970;19;129007;-47
2023/01/05 20:40:04;;;;;;;3.88;0.95;;;;;;;20.68;42.17;101889.38;16120958;19;132741;-47
2023/01/05 20:45:26;;;;;;;5.72;0.70;;;;;;;20.87;42.04;101889.31;16129088;19;130230;-49
2023/01/05 20:50:47;;;;;;;7.25;0.75;;;;;;;21.15;41.87;101888.66;16147341;19;129422;-48
2023/01/05 20:56:12;;;;;;;3.40;0.82;;;;;;;21.44;41.06;101880.44;16137466;19;131089;-45
2023/01/05 21:01:35;;;;;;;7.07;0.53;;;;;;;21.71;41.13;101882.75;16136047;19;129670;-50
2023/01/05 21:06:59;;;;;;;1.48;0.55;;;;;;;21.88;40.43;101884.78;16138176;19;129921;-46
2023/01/05 21:12:21;;;;;;;5.33;0.73;;;;;;;21.91;40.58;101878.72;16149358;19;130017;-50
2023/01/05 21:17:43;;;;;;;5.80;1.00;;;;;;;21.85;40.71;101888.06;16146646;19;134031;-47
2023/01/05 21:23:05;;;;;;;3.63;0.70;;;;;;;21.72;41.08;101881.66;16133070;19;131191;-54
2023/01/05 21:28:26;;;;;;;2.17;0.80;;;;;;;21.61;41.12;101875.00;16144673;19;129590;-51
2023/01/05 21:33:51;;;;;;;13.52;1.20;;;;;;;21.50;41.24;101873.94;16145884;19;130430;-51
2023/01/05 21:39:20;;;;;;;17.45;1.35;;;;;;;21.43;41.83;101877.91;16151772;19;129882;-52
2023/01/05 21:44:42;;;;;;;14.95;1.15;;;;;;;21.32;42.04;101882.38;16148195;19;130252;-53
2023/01/05 21:50:05;;;;;;;7.75;1.05;;;;;;;21.18;42.39;101881.75;16150747;19;129638;-52
2023/01/05 22:01:08;;;;;;;11.23;1.23;;;;;;;20.92;42.55;101860.81;16144961;19;130307;-55
2023/01/05 22:06:30;;;;;;;22.33;1.48;;;;;;;20.78;42.29;101852.69;16140144;19;130246;-45
2023/01/05 22:11:52;;;;;;;16.42;1.38;;;;;;;20.65;42.79;101845.34;16127306;19;130288;-47
2023/01/05 22:17:14;;;;;;;13.65;1.90;;;;;;;20.54;42.49;101838.69;16137616;19;129225;-47
2023/01/05 22:22:35;;;;;;;17.02;1.90;;;;;;;20.42;43.04;101830.31;16130992;19;130329;-46
2023/01/05 22:27:57;;;;;;;17.00;2.25;;;;;;;20.33;42.89;101831.72;16123456;19;129848;-49
2023/01/05 22:33:19;;;;;;;17.98;1.70;;;;;;;20.23;43.55;101823.94;16126145;19;130210;-48
2023/01/05 22:38:43;;;;;;;8.05;1.40;;;;;;;20.15;43.76;101838.19;16127166;19;129885;-48
2023/01/05 22:44:06;;;;;;;12.63;1.70;;;;;;;20.08;43.87;101826.28;16129362;19;130431;-46
2023/01/05 22:49:29;;;;;;;9.82;1.50;;;;;;;20.01;44.18;101840.25;16127700;19;129545;-46
2023/01/05 22:54:51;;;;;;;7.53;1.13;;;;;;;19.94;44.40;101845.88;16127354;19;130038;-48
2023/01/05 23:00:13;;;;;;;7.28;0.98;;;;;;;19.87;44.29;101828.47;16124983;19;131327;-45
2023/01/05 23:05:37;;;;;;;5.32;1.23;;;;;;;19.83;44.61;101838.31;16126796;19;130387;-49
2023/01/05 23:11:09;;;;;;;8.45;1.00;;;;;;;19.78;44.92;101835.41;16123863;19;130671;-47
2023/01/05 23:16:32;;;;;;;3.97;0.98;;;;;;;19.73;44.57;101835.25;16125622;19;129863;-48
2023/01/05 23:21:54;;;;;;;5.18;0.70;;;;;;;19.66;44.72;101827.00;16125047;19;129556;-46
2023/01/05 23:27:16;;;;;;;10.20;1.00;;;;;;;19.62;45.08;101834.94;16120496;19;129142;-46
2023/01/05 23:32:38;;;;;;;4.47;0.95;;;;;;;19.58;45.31;101830.91;16121027;19;129584;-48
2023/01/05 23:38:00;;;;;;;3.95;0.70;;;;;;;19.54;45.02;101824.16;16116239;19;129885;-45
2023/01/05 23:43:24;;;;;;;3.05;0.80;;;;;;;19.51;45.47;101821.84;16117361;19;130985;-45
2023/01/05 23:48:46;;;;;;;5.82;0.80;;;;;;;19.47;45.31;101815.91;16119369;19;130192;-48
2023/01/05 23:54:09;;;;;;;2.20;0.80;;;;;;;19.44;45.71;101815.53;16117534;19;132053;-48
2023/01/05 23:59:34;;;;;;;4.38;0.60;;;;;;;19.42;45.86;101803.81;16118451;19;129999;-49
